Strona główna
METAR-TAF:

METAR-TAF

Lotnisko :

Hrabstwo Franklin, Vermont, Stany Zjednoczone

Szerokość geograficzna: 44-56-25N, Długość geograficzna: 073-05-51W, wysokość: 69 m

Aktualna obserwacja pogody

Raport powstał 18 minut temu, godzina 11:55 UTC
Wiatr 5 kt od wschodnio-południowy wschód
Temperatura 21°C
Wilgotność 53%
Ciśnienie 1008 hPa
Widzialność: 16.1 km
Rozproszone chmury na wysokości 3600 ft
Rozproszone chmury na wysokości 5000 ft
Przerywane chmury na wysokości 11000 ft

METAR: KFSO 251155Z AUTO 12005KT 10SM SCT036 SCT050 BKN110 21/11 A2977 RMK AO2 T02060112 10206 20155

czas: 08:13 (12:13 UTC)


TAF: brakujący

Obserwacja i prognoza pogody dla ponad 4000 lotnisk (raport METAR i TAF).

Dostępne stacje oznaczono żółtymi i czerwonymi punktami na mapie.

Najedź kursorem aby zobaczyć nazwę stacji.

Kliknij aby zobaczyć obserwacje i prognozy pogody.

Aby zmienić mapę: kliknij na zielony przycisk z czarnym krzyżykiem, aby powiększyć; na zielony przycisk z myślnikiem, aby pomniejszyć; na zielone strzałki, aby przejść do map sąsiednich.


METAR-TAF: